EPKTEPSC

Guest
Details From EPKT - PYRZOWICE
To EPSC - GOLENIOW
Flight Number -
Tags generated
Created
Modified
Stats Distance 243 nm / 449 km
Max Altitude 30,900 ft / 9,418 m
Waypoints 5
Social Downloads 3
Likes 0
Share VATSIM

Download

Looking for another format? Having issues loading an existing format? Contact us
Advertisement - Login to hide

Notes

Basic altitude profile: - Ascent Rate: 2500ft/min - Ascent Speed: 250kts - Cruise Altitude: 35000ft - Cruise Speed: 420kts - Descent Rate: 1500ft/min - Descent Speed: 250kts Options: - Use NATs: yes - Use PACOTS: yes - Use low airways: yes - Use high airways: yes

Route

EPKT BESTO UL623 CZE UL619 DRE EPSC

ID Type Via Altitude Latitude Longitude Leg Dist Tot Dist Heading (true) Name
O EPKT APT - 0 ft / 0 m 50.47426˚ 19.07436˚ - 0 nm - PYRZOWICE
BESTO FIX - 30,900 ft / 9,418 m 51.73000˚ 17.39889˚ 98 nm 98 nm 321° / 319° -
CZE VOR UL623 (AWY-HI) 28,500 ft / 8,687 m 52.13061˚ 16.72713˚ 34 nm 132 nm 314° / 314° CZEMPIN VOR-DME
DRE VOR UL619 (AWY-HI) 28,500 ft / 8,687 m 52.81685˚ 15.83249˚ 52 nm 185 nm 322° / 321° DREZDENKO VOR-DME
O EPSC APT - 0 ft / 0 m 53.58473˚ 14.90220˚ 56 nm 242 nm 324° / 324° GOLENIOW

Altitude Profile

Advertisement - Login to hide

Weather


0- 5 10 15 20 25 30 35+ Temperature / ° C

Clouds and Precipitation
Forecast for 2018-05-20 18:00 UTC. Updated an hour ago

Ground ~20,000 ft ~40,000 ft Winds

EPKT

Details ICAO EPKT (KTW)
Name PYRZOWICE
Region Poland
Timezone Europe/Warsaw (UTC+2.0)
Stats Elevation 995 ft / 303 m (AMSL)
Location 50.474263° 19.074356°
Runways 1
Magnetic Variation 5.138° E

METAR

EPKT 201630Z 04007KT CAVOK 19/04 Q1022

Decode

TAF

TAF EPKT 201130Z 2012/2112 06012KT 9999 BKN040 BECMG 2022/2024 VRB02KT

Decode

Departure Runways

ID Width Length Bearing (true) Bearing (mag) Surface Threshold Offset Overrun Length
09 195 ft / 59 m 9,156 ft / 2,791 m 90.18° 85.04° Concrete 0 ft / 0 m 0 ft / 0 m
27 195 ft / 59 m 9,156 ft / 2,791 m 270.22° 265.08° Concrete 0 ft / 0 m 0 ft / 0 m

EPSC

Details ICAO EPSC (SZZ)
Name GOLENIOW
Region Poland
Timezone Europe/Warsaw (UTC+2.0)
Stats Elevation 154 ft / 47 m (AMSL)
Location 53.584731° 14.902195°
Runways 1
Magnetic Variation 4.357° E

METAR

EPSC 201630Z 04009KT 360V080 CAVOK 19/05 Q1025

Decode

TAF

TAF EPSC 201130Z 2012/2112 07006KT CAVOK BECMG 2108/2110 13012KT

Decode

Destination Runways

ID Width Length Bearing (true) Bearing (mag) Surface Threshold Offset Overrun Length
13 197 ft / 60 m 8,187 ft / 2,495 m 130.94° 126.58° Concrete 0 ft / 0 m 0 ft / 0 m
31 197 ft / 60 m 8,187 ft / 2,495 m 310.96° 306.60° Concrete 0 ft / 0 m 0 ft / 0 m

Approach Navaids

Runway Type Ident Frequency Range Bearing (true) Bearing (mag) Slope Elevation
31 Localiser SZC 110.50 MHz 18 nm / 33 km 310.93° 306.58° - 154 ft / 47 m (AMSL)
31 Glidescope SZC 110.50 MHz 10 nm / 19 km 310.95° 306.59° 3.00° 154 ft / 47 m (AMSL)
31 DME SZC 110.50 MHz 18 nm / 33 km - - - 197 ft / 60 m (AMSL)

Popular Alternatives